Weather observations for the past three days for
Charleston Executive Airport
Metric (Imperial)
Date Time (edt) Wind (kph) Vis. (km) Weather Sky Cond. Temperature (ºC) Relative Humidity Wind Chill (°C) Heat Index (°C) Pressure Precipitation (cm)
Air Dwpt 6 hour altimeter (cm) sea level (mb) 1 hr 3 hr 6 hr
Max. Min.
02 15:15 N 15 2.41 Light Rain Fog/Mist FEW007 FEW016 BKN027 16 16 100% 75.77 0.0
02 14:55 N 11 3.22 Light Rain Fog/Mist FEW026 16 16 100% 75.77 0.0 0.08
02 14:35 NE 15 2.41 Light Rain Fog/Mist SCT007 SCT014 BKN019 16 16 100% 75.77 0.0
02 14:15 N 15 4.83 Light Drizzle Fog/Mist FEW013 BKN019 16 16 100% 75.77 0.0
02 13:55 NE 15 2.82 Light Drizzle Fog/Mist SCT014 BKN020 BKN026 16 16 100% 75.74 0.0 0.15
02 13:35 NE 15 2.41 Light Rain Fog/Mist FEW006 SCT015 BKN020 16 16 100% 75.79 0.0
02 13:15 N 13 2.01 Light Rain Fog/Mist SCT007 SCT013 16 16 100% 75.79 0.0
02 12:55 N 11 2.41 Light Rain Fog/Mist SCT006 SCT013 16 16 100% 75.82 0.0 0.1
02 12:35 N 13 9.66 Light Drizzle Fog/Mist FEW006 FEW012 16 16 100% 75.77 0.0
02 12:10 NE 17 4.83 Light Rain Fog/Mist FEW055 16 16 100% 75.79 0.0
02 11:50 N 9 6.44 Light Rain Fog/Mist FEW013 BKN055 15 15 100% 75.87 0.0
02 11:35 NE 15 8.05 Light Rain Fog/Mist FEW013 SCT055 SCT065 15 15 100% 75.87 0.0
02 11:15 N 15 4.83 Light Rain Fog/Mist CLR 15 15 100% 75.9 0.0
02 10:55 N 19 2.41 Rain Fog/Mist SCT007 SCT015 SCT038 15 15 100% 75.9 0.0 0.48
02 10:35 NE 20 2.01 Rain Fog/Mist SCT007 BKN015 BKN019 16 16 100% 75.87 0.0
02 10:15 N 17 G 26 4.02 Light Rain Fog/Mist SCT018 SCT028 BKN055 16 16 100% 75.87 0.0
02 09:55 N 13 G 22 1.21 Rain Fog/Mist SCT007 BKN016 OVC023 17 17 100% 75.87 0.0 0.74
02 09:35 N 13 2.01 Rain Fog/Mist FEW006 SCT015 BKN022 17 17 100% 75.84 0.0
02 09:10 N 19 2.01 Rain Fog/Mist SCT008 BKN015 OVC022 17 17 100% 75.82 0.0
02 08:55 N 9 2.41 Light Rain Fog/Mist BKN008 BKN024 OVC055 17 17 100% 75.84 0.0 0.23
02 08:35 NE 11 4.83 Light Rain Fog/Mist FEW007 BKN055 BKN070 17 17 100% 75.79 0.0
02 08:15 N 13 8.05 Light Drizzle Fog/Mist FEW006 BKN070 BKN085 17 17 100% 75.77 0.0
02 07:55 NE 11 4.02 Light Rain Fog/Mist BKN006 BKN070 OVC110 17 17 100% 75.77 0.0 0.03
02 07:35 N 9 G 19 14.48 Overcast SCT007 BKN075 OVC110 17 17 100% 75.77 0.0
02 07:15 N 11 14.48 Overcast SCT005 BKN080 OVC120 17 17 100% 75.74 0.0
02 06:55 N 13 11.27 Mostly Cloudy SCT004 SCT022 BKN090 17 17 100% 75.74 0.0 0.3
02 06:35 N 11 2.82 Light Rain Fog/Mist BKN004 BKN023 OVC042 17 17 100% 75.77 0.0
02 06:15 N 7 4.02 Light Drizzle Fog/Mist SCT003 BKN027 OVC090 17 17 100% 75.79 0.0
02 05:55 N 9 3.22 Rain Fog/Mist FEW003 SCT028 BKN045 17 17 100% 75.82 0.0 0.25
02 05:35 Calm 4.02 Light Rain Fog/Mist SCT029 BKN045 OVC090 17 17 100% 75.84 0.0
02 05:15 Calm 4.02 Light Rain Fog/Mist FEW023 BKN034 OVC041 17 17 100% 75.84 0.0
02 04:55 Calm 6.44 Light Drizzle Fog/Mist OVC034 17 17 100% 75.84 0.0 0.15
02 04:35 NW 7 4.83 Rain Fog/Mist BKN034 BKN048 OVC080 17 17 100% 75.87 0.0
02 04:15 N 11 8.05 Light Rain Fog/Mist FEW003 BKN036 OVC085 17 17 100% 75.79 0.0
02 03:55 N 7 6.44 Light Drizzle Fog/Mist FEW003 BKN036 OVC041 18 18 100% 75.82 0.0 0.08
02 03:15 NW 7 8.05 Light Drizzle Fog/Mist FEW003 BKN037 OVC048 18 18 100% 75.82 0.0
02 02:55 N 6 8.05 Light Drizzle Fog/Mist FEW003 BKN041 OVC049 18 18 100% 75.82 0.0
02 02:35 NW 6 6.44 Light Drizzle Fog/Mist OVC040 18 18 100% 75.87 0.0
02 02:15 NW 7 8.05 Fog/Mist BKN040 OVC048 18 18 100% 75.9 0.0
02 01:55 NW 6 6.44 Light Drizzle Fog/Mist BKN041 OVC047 18 18 100% 75.87 0.0 0.03
02 01:35 Calm 8.05 Light Rain Fog/Mist FEW029 BKN042 OVC090 18 18 100% 75.87 0.0
02 01:15 N 6 11.27 Light Drizzle FEW005 BKN042 OVC080 18 18 100% 75.84 0.0
02 00:55 N 6 14.48 Overcast FEW005 OVC042 18 18 100% 75.87 0.0
02 00:35 N 7 14.48 Overcast BKN042 OVC060 18 18 100% 75.87 0.0
02 00:15 Calm 6.44 Light Drizzle Fog/Mist FEW028 OVC042 18 18 100% 75.92 0.0
01 23:55 Calm 16.09 Overcast OVC042 18 18 100% 75.92 0.0
01 23:35 NE 7 16.09 Overcast OVC046 18 18 100% 75.92 0.0
01 23:15 NE 7 16.09 Overcast OVC047 18 18 100% 75.92 0.0
01 22:55 NE 7 14.48 Overcast OVC047 18 18 100% 75.95 0.0 0.03
01 22:35 Calm 6.44 Light Drizzle Fog/Mist FEW023 BKN039 OVC049 18 18 100% 76 0.0
01 22:15 Calm 4.02 Light Drizzle Fog/Mist FEW015 SCT021 OVC038 18 18 100% 76.02 0.0
01 21:55 Calm 4.83 Light Drizzle Fog/Mist SCT021 BKN027 OVC045 18 18 100% 76 0.0
01 21:35 Calm 16.09 Overcast FEW036 SCT044 OVC050 18 18 100% 76 0.0
01 21:15 NE 6 16.09 Overcast OVC050 18 18 100% 75.95 0.0
01 20:55 E 7 14.48 Overcast OVC055 18 18 100% 75.92 0.0 0.03
01 20:35 NE 13 6.44 Light Drizzle Fog/Mist FEW021 BKN036 OVC060 18 18 100% 75.9 0.0
01 20:15 NE 9 4.83 Light Drizzle Fog/Mist FEW007 SCT014 OVC036 18 18 100% 75.9 0.0
01 19:55 NE 6 1.61 Light Rain Fog/Mist SCT008 BKN014 OVC021 19 19 100% 75.9 0.0 0.1
01 19:35 N 6 3.22 Light Rain Fog/Mist FEW007 SCT010 BKN036 19 19 100% 75.9 0.0
01 19:15 N 11 11.27 Overcast BKN045 OVC050 19 19 100% 75.87 0.0
01 18:55 NE 13 8.05 Light Drizzle Fog/Mist OVC050 19 19 100% 75.84 0.0
01 18:35 NE 11 14.48 Overcast OVC050 19 19 100% 75.84 0.0
01 18:15 NE 11 14.48 Mostly Cloudy BKN055 BKN065 19 19 100% 75.87 0.0
01 17:55 NE 9 4.83 Light Drizzle Fog/Mist FEW036 FEW042 SCT055 19 19 100% 75.84 0.0 0.1
01 17:35 NE 11 1.61 Light Rain Fog/Mist FEW010 SCT027 BKN035 19 19 100% 75.9 0.0
01 17:15 N 7 14.48 Overcast OVC050 19 18 94% 75.9 0.0
01 16:55 NE 11 4.83 Light Drizzle Fog/Mist OVC050 19 18 94% 75.87 0.0
01 16:35 NE 9 16.09 Overcast FEW021 SCT033 OVC055 19 18 94% 75.9 0.0
01 16:15 NE 9 9.66 Fog/Mist FEW021 SCT027 BKN055 19 18 94% 75.9 0.0
01 15:55 NE 13 8.05 Light Drizzle Fog/Mist BKN020 BKN047 BKN060 19 18 94% 75.9 0.0 0.03
01 15:35 NE 13 6.44 Light Drizzle Fog/Mist BKN015 OVC022 19 17 88% 75.95 0.0
01 15:15 NE 13 14.48 Overcast BKN014 OVC065 19 17 88% 75.97 0.0
01 14:55 NE 13 G 24 16.09 Mostly Cloudy FEW014 BKN065 19 17 88% 75.97 0.0
01 14:35 NE 13 G 26 16.09 Mostly Cloudy SCT015 BKN065 19 17 88% 75.95 0.0
01 14:15 NE 15 16.09 Mostly Cloudy SCT060 BKN070 19 17 88% 75.97 0.0
01 13:55 NE 13 14.48 Mostly Cloudy FEW015 FEW019 BKN055 19 17 88% 76.02 0.0
01 13:35 NE 11 8.05 Light Drizzle Fog/Mist FEW015 SCT019 BKN055 19 17 88% 76.02 0.0
01 13:15 NE 13 12.87 Light Drizzle FEW034 SCT060 BKN070 18 16 88% 76 0.0
01 12:55 NE 15 G 24 8.05 Light Drizzle Haze SCT028 BKN070 19 17 88% 76.02 0.0
01 12:35 NE 13 G 22 16.09 Partly Cloudy SCT028 SCT070 19 16 83% 76.02 0.0
01 12:15 NE 19 6.44 Light Rain Haze FEW029 BKN070 BKN080 19 17 88% 76.02 0.0
01 11:55 NE 13 G 24 16.09 Overcast SCT029 SCT034 OVC080 20 16 78% 76.05 0.0
01 11:30 NE 19 16.09 Overcast FEW029 SCT080 OVC090 20 16 78% 76.05 0.0
01 11:15 NE 20 16.09 Mostly Cloudy FEW016 SCT029 BKN085 20 17 83% 76.02 0.0
01 10:55 NE 17 G 26 16.09 Partly Cloudy FEW016 SCT029 SCT090 20 17 83% 76.02 0.0
01 10:35 E 19 16.09 A Few Clouds FEW090 21 18 83% 76 0.0
01 10:15 E 15 G 28 16.09 Fair CLR 21 18 83% 76 0.0
01 09:55 NE 17 16.09 Fair CLR 21 18 83% 75.97 0.0
01 09:35 NE 15 16.09 Fair CLR 21 18 83% 76 0.0
01 09:15 NE 15 16.09 Fair CLR 20 18 88% 75.97 0.0
01 08:55 NE 15 16.09 A Few Clouds FEW065 20 18 88% 75.97 0.0
01 08:35 NE 17 16.09 Mostly Cloudy BKN060 20 18 88% 75.95 0.0
01 08:15 NE 11 16.09 Overcast BKN060 OVC065 20 19 94% 75.95 0.0
01 07:55 NE 9 16.09 Overcast OVC060 19 19 100% 75.97 0.0
01 07:35 NE 6 16.09 Mostly Cloudy BKN060 19 19 100% 75.95 0.0
01 07:15 N 6 16.09 Partly Cloudy SCT060 18 18 100% 75.92 0.0
01 06:55 NE 6 16.09 Fair CLR 17 17 100% 75.92 0.0
01 06:35 Calm 16.09 Fair CLR 18 17 94% 75.9 0.0
01 06:15 Calm 16.09 Fair CLR 17 17 100% 75.9 0.0
01 05:55 Calm 16.09 Fair CLR 17 17 100% 75.87 0.0
01 05:35 Calm 16.09 A Few Clouds FEW050 16 16 100% 75.9 0.0
01 05:15 Calm 16.09 Mostly Cloudy BKN050 BKN060 16 16 100% 75.9 0.0
01 04:55 Calm 16.09 Mostly Cloudy BKN050 16 16 100% 75.9 0.0
01 04:35 Calm 16.09 A Few Clouds FEW055 16 16 100% 75.87 0.0
01 04:15 Calm 16.09 Fair CLR 15 15 100% 75.87 0.0
01 03:55 Calm 16.09 Fair CLR 15 15 100% 75.87 0.0
01 03:35 Calm 14.48 Fair CLR 15 15 100% 75.87 0.0
01 03:15 Calm 14.48 Fair CLR 15 15 100% 75.84 0.0
01 02:55 Calm 14.48 Fair CLR 16 16 100% 75.84 0.0
01 02:35 Calm 12.87 Fair CLR 16 16 100% 75.84 0.0
01 02:15 Calm 14.48 Fair CLR 16 16 100% 75.84 0.0
01 01:55 Calm 16.09 Fair CLR 16 16 100% 75.84 0.0
01 01:35 Calm 16.09 Fair CLR 16 16 100% 75.87 0.0
01 01:15 Calm 16.09 Fair CLR 16 16 100% 75.9 0.0
01 00:55 Calm 16.09 Fair CLR 16 16 100% 75.9 0.0
01 00:35 Calm 16.09 Fair CLR 17 16 94% 75.92 0.0
01 00:15 Calm 16.09 Fair CLR 17 17 100% 75.9 0.0
30 23:55 Calm 16.09 Fair CLR 17 17 100% 75.9 0.0
30 23:35 Calm 16.09 Fair CLR 17 17 100% 75.9 0.0
30 23:15 Calm 16.09 Fair CLR 17 17 100% 75.9 0.0
30 22:55 Calm 16.09 Fair CLR 17 17 100% 75.9 0.0
30 22:35 Calm 16.09 Fair CLR 18 17 94% 75.9 0.0
30 21:55 Calm 16.09 Fair CLR 18 17 94% 75.9 0.0
30 21:35 Calm 16.09 Fair CLR 19 17 88% 75.84 0.0
30 21:15 E 7 16.09 Fair CLR 18 17 94% 75.82 0.0
30 20:55 Calm 16.09 Fair CLR 19 17 88% 75.82 0.0
30 20:35 E 6 16.09 Fair CLR 19 17 88% 75.79 0.0
30 20:15 E 6 16.09 Fair CLR 19 17 88% 75.79 0.0
30 19:55 E 11 16.09 Fair CLR 20 17 83% 75.77 0.0
30 19:35 E 7 16.09 Fair CLR 20 17 83% 75.74 0.0
30 19:15 Calm 16.09 Fair CLR 20 17 83% 75.72 0.0
30 18:55 SE 11 16.09 A Few Clouds FEW080 20 17 83% 75.72 0.0
30 18:35 E 13 16.09 Partly Cloudy SCT080 21 17 78% 75.72 0.0
30 18:15 E 9 14.48 Partly Cloudy SCT085 21 17 78% 75.72 0.0
30 17:55 E 11 16.09 Partly Cloudy SCT048 SCT085 21 17 78% 75.72 0.0
30 17:35 Vrbl 9 G 19 16.09 Overcast BKN047 BKN060 OVC070 21 18 83% 75.72 0.0
30 17:15 E 15 16.09 Mostly Cloudy BKN065 21 17 78% 75.72 0.0
30 16:55 E 17 16.09 Partly Cloudy FEW015 FEW024 SCT060 21 18 83% 75.69 0.0
30 16:35 E 11 16.09 Overcast FEW015 BKN024 OVC043 20 18 88% 75.72 0.0
30 16:15 E 15 16.09 Overcast BKN024 BKN028 OVC037 20 18 88% 75.69 0.0
30 15:55 E 15 11.27 Light Drizzle SCT016 BKN023 OVC032 19 18 94% 75.72 0.0 0.36
30 15:35 NE 13 G 28 3.22 Heavy Rain Fog/Mist BKN017 OVC022 20 18 88% 75.72 0.0
30 15:15 E 20 16.09 Mostly Cloudy FEW015 BKN020 BKN032 21 19 88% 75.72 0.0
30 14:55 E 20 G 30 16.09 Mostly Cloudy FEW013 SCT021 BKN037 22 19 83% 75.72 0.0
30 14:35 E 17 16.09 Partly Cloudy SCT020 SCT035 SCT040 23 20 83% 75.69 0.0
30 14:15 E 13 16.09 Partly Cloudy FEW016 SCT024 SCT040 24 20 78% 24 75.69 0.0
30 13:55 E 7 16.09 Mostly Cloudy SCT015 BKN024 24 20 78% 24 75.72 0.0
30 13:30 Calm 16.09 Fair CLR 24 19 74% 25 75.69 0.0
30 13:15 Calm 16.09 Fair CLR 24 19 74% 25 75.69 0.0
30 12:55 NE 9 16.09 Fair CLR 24 19 74% 25 75.69 0.0
30 12:35 N 7 16.09 Fair CLR 24 18 69% 25 75.72 0.0
30 12:15 N 9 16.09 Fair CLR 24 19 74% 25 75.72 0.0
30 11:55 N 9 16.09 Fair CLR 23 19 78% 75.74 0.0
30 11:35 N 9 G 20 16.09 Fair CLR 23 19 78% 75.74 0.0
30 11:15 N 13 16.09 Fair CLR 23 20 83% 75.74 0.0
30 10:55 N 7 G 19 16.09 Fair CLR 22 20 88% 75.74 0.0
30 10:35 N 13 16.09 Partly Cloudy SCT100 21 20 94% 75.74 0.0
30 10:15 NW 13 16.09 Mostly Cloudy BKN100 21 20 94% 75.74 0.0
30 09:55 NW 19 G 31 16.09 A Few Clouds FEW110 21 20 94% 75.74 0.0 0.08
30 09:35 NW 20 14.48 Thunderstorm in Vicinity Drizzle FEW012 FEW048 FEW055 21 21 100% 75.74 0.0
30 09:15 N 20 6.44 Light Drizzle Fog/Mist FEW030 SCT045 SCT055 21 21 100% 75.74 0.0
30 08:55 NW 17 G 28 1.61 Heavy Rain Fog/Mist FEW003 SCT020 BKN100 21 21 100% 75.77 0.0 0.18
30 08:35 NW 13 11.27 Light Rain FEW075 FEW100 22 21 94% 75.72 0.0
30 08:15 NW 11 11.27 Light Drizzle FEW070 SCT080 SCT090 22 20 88% 75.67 0.0
30 07:55 W 19 16.09 Light Drizzle SCT110 22 20 88% 75.67 0.0
30 07:35 W 17 14.48 A Few Clouds FEW120 22 20 88% 75.59 0.0
30 07:15 SW 9 14.48 Light Rain CLR 22 20 88% 75.64 0.0
30 06:55 SW 9 16.09 Fair CLR 22 20 88% 75.62 0.0
30 06:35 W 11 16.09 Fair CLR 22 20 88% 75.62 0.0
30 06:15 W 9 16.09 Fair CLR 22 20 88% 75.59 0.0
30 05:55 SW 9 16.09 A Few Clouds FEW080 22 20 88% 75.57 0.0
30 05:35 W 13 16.09 Fair CLR 22 21 94% 75.59 0.0
30 05:15 W 6 16.09 Fair CLR 22 21 94% 75.59 0.0
30 04:55 Calm 16.09 Fair CLR 22 21 94% 75.59 0.0
30 04:35 SW 7 14.48 Fair CLR 22 21 94% 75.62 0.0
30 04:15 SW 7 14.48 Fair CLR 22 21 94% 75.57 0.0
30 03:55 W 7 14.48 Fair CLR 22 21 94% 75.57 0.0
30 03:35 SW 9 16.09 Fair CLR 22 21 94% 75.59 0.0
30 03:15 SW 9 16.09 Fair CLR 22 21 94% 75.59 0.0
30 02:55 SW 11 16.09 Fair CLR 22 21 94% 75.62 0.0
30 02:35 SW 13 16.09 Fair CLR 22 21 94% 75.64 0.0
30 02:15 SW 13 16.09 Fair CLR 22 21 94% 75.69 0.0
30 01:55 SW 15 16.09 Fair CLR 22 21 94% 75.72 0.0
30 01:35 SW 17 G 28 16.09 Fair CLR 23 21 89% 75.74 0.0
30 01:15 SW 19 16.09 Fair CLR 23 21 89% 75.77 0.0
30 00:55 SW 15 16.09 Fair CLR 23 20 83% 75.79 0.0
30 00:35 SW 17 G 28 16.09 Fair CLR 23 20 83% 75.79 0.0
30 00:15 SW 17 G 28 16.09 Fair CLR 23 20 83% 75.79 0.0
29 23:55 SW 15 16.09 Fair CLR 22 20 88% 75.82 0.0
29 23:35 SW 15 16.09 Fair CLR 22 20 88% 75.84 0.0
29 23:15 SW 13 16.09 Fair CLR 22 20 88% 75.84 0.0
29 22:55 SW 13 16.09 Fair CLR 22 20 88% 75.84 0.0
29 22:35 SW 13 16.09 Fair CLR 22 20 88% 75.82 0.0
29 22:15 SW 17 16.09 Fair CLR 22 20 88% 75.84 0.0
29 21:55 SW 15 16.09 Fair CLR 22 20 88% 75.82 0.0
29 21:35 SW 13 G 22 16.09 Fair CLR 22 20 88% 75.87 0.0
29 21:15 SW 15 16.09 Fair CLR 22 20 88% 75.84 0.0
29 20:55 SW 13 16.09 Fair CLR 21 20 94% 75.79 0.0
29 20:35 SW 13 16.09 Fair CLR 21 20 94% 75.79 0.0
29 20:15 SW 11 16.09 A Few Clouds FEW080 22 20 88% 75.74 0.0
29 19:55 SW 11 16.09 Mostly Cloudy BKN080 22 19 83% 75.74 0.0
29 19:35 SW 13 16.09 Fair CLR 23 19 78% 75.77 0.0
29 19:15 SW 11 G 24 16.09 Fair CLR 23 19 78% 75.77 0.0
29 18:55 SW 17 16.09 Fair CLR 24 19 74% 25 75.77 0.0
29 18:35 SW 15 16.09 Mostly Cloudy BKN075 24 19 74% 25 75.77 0.0
29 18:15 SW 19 16.09 Overcast OVC075 24 19 74% 25 75.77 0.0
29 17:55 SW 20 16.09 Mostly Cloudy BKN070 24 20 78% 24 75.79 0.0
29 17:35 S 20 16.09 Partly Cloudy SCT065 25 20 74% 26 75.79 0.0
29 17:15 SW 20 G 30 16.09 Fair CLR 25 20 74% 26 75.82 0.0
29 16:55 S 20 16.09 Fair CLR 25 20 74% 26 75.82 0.0
29 16:35 S 19 16.09 Fair CLR 24 20 78% 24 75.82 0.0
29 16:15 S 20 16.09 A Few Clouds FEW070 26 20 70% 27 75.87 0.0
29 15:55 S 22 16.09 A Few Clouds FEW070 25 20 74% 26 75.9 0.0
29 15:35 S 19 16.09 Partly Cloudy SCT070 25 20 74% 26 75.92 0.0
Date Time (edt) Wind (kph) Vis. (km) Weather Sky Cond. Air Dwpt Max. Min. Relative Humidity Wind Chill (°C) Heat Index (°C) altimeter (cm) sea level (mb) 1 hr 3 hr 6 hr
6 hour
Temperature (ºC) Pressure Precipitation (cm)